• Join FlightAware (Why Join?)
  • Login
  • US Flag 
10:04AM EST


 

Airport Tracker/Info


-or-


 

Live Flight TrackerFlight Track Log ✈ EJA982 ✈ 22-May-2013 ✈ KSRQ - KJAC

Flight Track Log - Related Links

Times and Time Zones

All times are in EDT time to prevent confusion due to time zone crossing. See the EJA982 flight status page for this flight to view local times or setup timezone preferences in your user account.

Time Position Orientation Groundspeed Altitude Reporting Facility
EDT Latitude Longitude Course Direction KTS MPH feet Rate Location/Type
08:14AM 27.3833 -82.5500 138° Southeast 169 194 800  Level Tampa TRACON
08:14AM 27.3667 -82.5333 138° Southeast 191 220 1,800 2,981 Climbing Tampa TRACON
08:16AM 27.2847 -82.5417 185° South 133 153 8,500 2,984 Climbing Miami Center
08:17AM 27.3361 -82.6189 307° West 133 153 11,300 2,200 Climbing Miami Center
08:18AM 27.3886 -82.7150 302° West 257 296 12,900 1,800 Climbing Miami Center
08:19AM 27.4131 -82.8286 284° West 326 375 14,900 1,750 Climbing Miami Center
08:20AM 27.4375 -82.9419 284° West 359 413 16,400 1,450 Climbing Miami Center
08:21AM 27.4594 -83.0625 282° West 380 437 17,800 1,450 Climbing Miami Center
08:22AM 27.4814 -83.1806 282° West 392 451 19,300 1,350 Climbing Miami Center
08:23AM 27.5053 -83.3011 283° West 397 457 20,500 1,200 Climbing Miami Center
08:24AM 27.5289 -83.4242 282° West 397 457 21,700 1,100 Climbing Miami Center
08:25AM 27.5544 -83.5497 283° West 397 457 22,700 1,000 Climbing Miami Center
08:26AM 27.5819 -83.6753 284° West 397 457 23,700 950 Climbing Miami Center
08:27AM 27.6050 -83.8031 282° West 407 468 24,600 900 Climbing Miami Center
08:28AM 27.6300 -83.9333 282° West 419 482 25,500 923 Climbing Miami Center
08:30AM 27.6744 -84.1483 283° West 463 533 27,000 1,000 Climbing Jacksonville Center
08:31AM 27.7022 -84.2800 283° West 457 526 28,100 950 Climbing Jacksonville Center
08:32AM 27.7319 -84.4164 284° West 445 512 28,900 850 Climbing Jacksonville Center
08:33AM 27.7533 -84.5503 280° West 445 512 29,800 800 Climbing Jacksonville Center
08:34AM 27.7722 -84.6889 279° West 451 519 30,500 1,050 Climbing Jacksonville Center
08:35AM 27.8033 -84.8492 282° West 457 526 31,900 1,750 Climbing Jacksonville Center
08:36AM 27.8306 -84.9764 284° West 449 517 34,000 1,750 Climbing Jacksonville Center
08:37AM 27.8553 -85.1128 282° West 449 517 35,400 1,500 Climbing Jacksonville Center
08:38AM 27.8825 -85.2381 284° West 437 503 37,000 1,300 Climbing Jacksonville Center
08:39AM 27.9175 -85.3703 287° West 432 497 38,000 500 Climbing Jacksonville Center
08:40AM 27.9567 -85.4958 289° West 432 497 38,000  Level Jacksonville Center
08:41AM 27.9956 -85.6378 287° West 451 519 38,000  Level Jacksonville Center
08:42AM 28.0386 -85.7636 291° West 451 519 38,000  Level Jacksonville Center
08:43AM 28.0811 -85.9081 288° West 457 526 38,000  Level Jacksonville Center
08:44AM 28.1217 -86.0483 288° West 462 532 38,000  Level Jacksonville Center
08:45AM 28.1564 -86.1647 289° West 467 537 38,000  Level Jacksonville Center
08:46AM 28.1986 -86.3072 289° West 465 535 38,000  Level Jacksonville Center
08:47AM 28.2406 -86.4453 289° West 470 541 38,000  Level Jacksonville Center
08:48AM 28.2767 -86.5761 287° West 463 533 38,000  Level Jacksonville Center
08:49AM 28.3206 -86.7192 289° West 468 539 38,000  Level Jacksonville Center
08:50AM 28.3600 -86.8575 288° West 468 539 38,000  Level Jacksonville Center
08:51AM 28.4036 -87.0008 289° West 474 545 38,000  Level Jacksonville Center
08:52AM 28.4408 -87.1369 287° West 469 540 38,000  Level Jacksonville Center
08:52AM 28.4633 -87.2103 289° West 470 541 38,000  Level Houston Center
08:54AM 28.5114 -87.3803 288° West 472 543 38,000  Level Houston Center
08:55AM 28.5528 -87.5219 288° West 473 544 38,000  Level Houston Center
08:56AM 28.5936 -87.6650 288° West 476 548 38,000 145 Level Houston Center
08:57AM 28.6344 -87.8072 288° West 475 547 38,300 677 Climbing Houston Center
08:58AM 28.6736 -87.9486 288° West 470 541 39,400 1,122 Climbing Houston Center
08:59AM 28.7169 -88.1044 288° West 455 524 40,600 1,073 Climbing Houston Center
09:00AM 28.7539 -88.2372 288° West 444 511 41,600 919 Climbing Houston Center
09:01AM 28.7908 -88.3683 288° West 438 504 42,500 677 Climbing Houston Center
09:02AM 28.8264 -88.4947 288° West 424 488 43,000 242 Climbing Houston Center
09:03AM 28.8614 -88.6239 287° West 426 490 43,000  Level Houston Center
09:04AM 28.8953 -88.7572 286° West 435 501 43,000  Level Houston Center
09:05AM 28.9231 -88.8906 283° West 434 499 43,000  Level Houston Center
09:06AM 28.9569 -89.0528 283° West 437 503 43,000  Level Houston Center
09:07AM 28.9864 -89.1872 284° West 438 504 43,000  Level Houston Center
09:08AM 29.0147 -89.3239 283° West 441 507 43,000  Level Houston Center
09:09AM 29.0428 -89.4617 283° West 445 512 43,000  Level Houston Center
09:10AM 29.0717 -89.5989 284° West 444 511 43,000  Level Houston Center
09:11AM 29.1000 -89.7383 283° West 447 514 43,000  Level Houston Center
09:12AM 29.1272 -89.8744 283° West 440 506 43,000  Level Houston Center
09:13AM 29.1608 -90.0378 283° West 440 506 43,000  Level Houston Center
09:14AM 29.1869 -90.1747 282° West 441 507 43,000  Level Houston Center
09:15AM 29.2094 -90.3128 281° West 442 509 43,000  Level Houston Center
09:16AM 29.2322 -90.4497 281° West 439 505 43,000  Level Houston Center
09:17AM 29.2550 -90.5850 281° West 435 501 43,000  Level Houston Center
09:18AM 29.2778 -90.7222 281° West 437 503 43,000  Level Houston Center
09:19AM 29.3003 -90.8614 281° West 442 509 43,000  Level Houston Center
09:20AM 29.3272 -91.0261 281° West 440 506 43,000  Level Houston Center
09:21AM 29.3500 -91.1656 281° West 444 511 43,000 -49 Level Houston Center
09:22AM 29.3719 -91.3061 280° West 448 516 42,900  Descending Houston Center
09:23AM 29.3950 -91.4481 281° West 451 519 43,000 48 Climbing Houston Center
09:24AM 29.4172 -91.5875 280° West 448 516 43,000 -49 Level Houston Center
09:25AM 29.4389 -91.7286 280° West 448 516 42,900  Descending Houston Center
09:26AM 29.4606 -91.8697 280° West 450 518 43,000 48 Climbing Houston Center
09:28AM 29.4817 -92.0083 280° West 445 512 43,000  Level Houston Center
09:29AM 29.5089 -92.1731 281° West 440 506 43,000 49 Level Houston Center
09:30AM 29.5303 -92.3122 280° West 441 507 43,100 341 Climbing Houston Center
09:31AM 29.5772 -92.4417 293° West 438 504 43,700 581 Climbing Houston Center
09:32AM 29.6322 -92.5661 297° West 439 505 44,300 581 Climbing Houston Center
09:33AM 29.6883 -92.6867 298° West 431 496 44,900 341 Climbing Houston Center
09:34AM 29.7436 -92.8072 298° West 427 491 45,000 49 Climbing Houston Center
09:35AM 29.8006 -92.9292 298° West 432 497 45,000  Level Houston Center
09:36AM 29.8669 -93.0789 297° West 436 502 45,000  Level Houston Center
09:37AM 29.9244 -93.2044 298° West 441 507 45,000  Level Houston Center
09:38AM 29.9800 -93.3300 297° West 440 506 45,000  Level Houston Center
09:39AM 30.0369 -93.4558 298° West 441 507 45,000  Level Houston Center
09:40AM 30.0950 -93.5842 298° West 445 512 45,000  Level Houston Center
09:41AM 30.1506 -93.7119 297° West 442 509 45,000  Level Houston Center
09:42AM 30.2086 -93.8392 298° West 444 511 45,000  Level Houston Center
09:43AM 30.2653 -93.9658 297° West 441 507 45,000  Level Houston Center
09:44AM 30.3217 -94.0928 297° West 441 507 45,000  Level Houston Center
09:45AM 30.3894 -94.2447 297° West 442 509 45,000  Level Houston Center
09:46AM 30.4442 -94.3717 297° West 442 509 45,000  Level Houston Center
09:47AM 30.4997 -94.4981 297° West 440 506 45,000  Level Houston Center
09:48AM 30.5531 -94.6233 296° West 433 498 45,000  Level Houston Center
09:49AM 30.6089 -94.7533 297° West 441 507 45,000  Level Houston Center
09:50AM 30.6647 -94.8842 296° West 446 513 45,000  Level Houston Center
09:51AM 30.7211 -95.0139 297° West 447 514 45,000  Level Houston Center
09:52AM 30.7772 -95.1425 297° West 444 511 45,000  Level Houston Center
09:53AM 30.8422 -95.2972 296° West 442 509 45,000  Level Houston Center
09:54AM 30.8986 -95.4264 297° West 444 511 45,000  Level Houston Center
09:55AM 30.9522 -95.5542 296° West 440 506 45,000  Level Houston Center
09:56AM 31.0072 -95.6831 296° West 441 507 45,000  Level Houston Center
09:57AM 31.0631 -95.8117 297° West 443 510 45,000  Level Houston Center
09:58AM 31.1172 -95.9406 296° West 442 509 45,000  Level Houston Center
09:59AM 31.1775 -96.0836 296° West 441 507 45,000  Level Houston Center
10:00AM 31.2306 -96.2142 295° West 442 509 45,000  Level Houston Center
10:01AM 31.2856 -96.3442 296° West 443 510 45,000  Level Houston Center
10:03AM 31.3397 -96.4747 296° West 443 510 45,000  Level Houston Center
10:04AM 31.3936 -96.6061 296° West 445 512 45,000  Level Houston Center
10:05AM 31.4469 -96.7378 295° West 447 514 45,000  Level Houston Center
10:06AM 31.5011 -96.8692 296° West 447 514 45,000  Level Houston Center
10:07AM 31.5650 -97.0239 296° West 449 517 45,000  Level Houston Center
10:08AM 31.6186 -97.1578 295° West 450 518 45,000  Level Houston Center
10:08AM 31.6475 -97.2278 296° West 447 514 45,000  Level Fort Worth Center
10:09AM 31.7289 -97.3475 309° West 453 521 45,000  Level Fort Worth Center
10:10AM 31.8186 -97.4525 315° West 458 527 45,000  Level Fort Worth Center
10:11AM 31.9022 -97.5456 317° Northwest 458 527 45,000  Level Fort Worth Center
10:12AM 31.9958 -97.6658 313° West 454 522 45,000  Level Fort Worth Center
10:13AM 32.0958 -97.7811 316° Northwest 454 522 45,000  Level Fort Worth Center
10:14AM 32.1792 -97.8797 315° West 454 522 45,000  Level Fort Worth Center
10:15AM 32.2767 -97.9958 315° West 454 522 45,000  Level Fort Worth Center
10:16AM 32.3556 -98.0922 314° West 459 528 45,000  Level Fort Worth Center
10:17AM 32.4550 -98.2086 315° West 459 528 45,000  Level Fort Worth Center
10:18AM 32.5358 -98.3031 315° West 459 528 45,000  Level Fort Worth Center
10:19AM 32.6331 -98.4200 315° West 459 528 45,000  Level Fort Worth Center
10:20AM 32.7117 -98.5147 315° West 459 528 45,000  Level Fort Worth Center
10:21AM 32.8025 -98.6194 316° Northwest 459 528 45,000  Level Fort Worth Center
10:22AM 32.8892 -98.7272 314° West 459 528 45,000  Level Fort Worth Center
10:23AM 32.9778 -98.8350 314° West 459 528 45,000  Level Fort Worth Center
10:24AM 33.0642 -98.9403 314° West 459 528 45,000  Level Fort Worth Center
10:25AM 33.1669 -99.0611 315° West 459 528 45,000  Level Fort Worth Center
10:26AM 33.2553 -99.1722 314° West 459 528 45,000  Level Fort Worth Center
10:27AM 33.3456 -99.2808 315° West 459 528 45,000  Level Fort Worth Center
10:28AM 33.4336 -99.3897 314° West 459 528 45,000  Level Fort Worth Center
10:29AM 33.5319 -99.4917 319° Northwest 464 534 45,000  Level Fort Worth Center
10:30AM 33.6325 -99.5939 320° Northwest 464 534 45,000  Level Fort Worth Center
10:31AM 33.7308 -99.6961 319° Northwest 469 540 45,000  Level Fort Worth Center
10:32AM 33.8314 -99.7964 320° Northwest 469 540 45,000  Level Fort Worth Center
10:33AM 33.9294 -99.8992 319° Northwest 469 540 45,000  Level Fort Worth Center
10:34AM 34.0297 -100.0047 319° Northwest 474 545 45,000  Level Fort Worth Center
10:35AM 34.1297 -100.1056 320° Northwest 474 545 45,000  Level Fort Worth Center
10:36AM 34.2275 -100.2117 318° Northwest 474 545 45,000  Level Fort Worth Center
10:39AM 34.4603 -100.4506 320° Northwest 480 552 45,000  Level Albuquerque Center
10:40AM 34.5808 -100.5764 319° Northwest 480 552 45,000  Level Albuquerque Center
10:41AM 34.6806 -100.6819 319° Northwest 476 548 45,000  Level Albuquerque Center
10:42AM 34.7800 -100.7878 319° Northwest 477 549 45,000  Level Albuquerque Center
10:43AM 34.8789 -100.8931 319° Northwest 474 545 45,000  Level Albuquerque Center
10:44AM 34.9775 -100.9978 319° Northwest 473 544 45,000  Level Albuquerque Center
10:45AM 35.0761 -101.1025 319° Northwest 472 543 45,000  Level Albuquerque Center
10:46AM 35.1933 -101.2278 319° Northwest 470 541 45,000  Level Albuquerque Center
10:47AM 35.2892 -101.3314 319° Northwest 473 544 45,000  Level Albuquerque Center
10:48AM 35.3883 -101.4375 319° Northwest 473 544 45,000  Level Albuquerque Center
10:49AM 35.4864 -101.5436 319° Northwest 469 540 45,000  Level Albuquerque Center
10:50AM 35.5781 -101.6456 318° Northwest 467 537 45,000  Level Albuquerque Center
10:51AM 35.6944 -101.7722 319° Northwest 469 540 45,000  Level Albuquerque Center
10:52AM 35.7897 -101.8775 318° Northwest 464 534 45,000  Level Albuquerque Center
10:53AM 35.8875 -101.9842 319° Northwest 467 537 45,000  Level Albuquerque Center
10:54AM 35.9833 -102.0906 318° Northwest 467 537 45,000  Level Albuquerque Center
10:55AM 36.0786 -102.1964 318° Northwest 463 533 45,000  Level Albuquerque Center
10:56AM 36.1939 -102.3239 318° Northwest 464 534 45,000  Level Albuquerque Center
10:57AM 36.2897 -102.4306 318° Northwest 463 533 45,000  Level Albuquerque Center
10:58AM 36.3856 -102.5369 318° Northwest 464 534 45,000  Level Albuquerque Center
10:59AM 36.4817 -102.6458 318° Northwest 466 536 45,000  Level Albuquerque Center
11:00AM 36.5781 -102.7531 318° Northwest 466 536 45,000  Level Albuquerque Center
11:01AM 36.6908 -102.8842 317° Northwest 469 540 45,000  Level Albuquerque Center
11:02AM 36.7836 -102.9864 319° Northwest 466 536 45,000  Level Albuquerque Center
11:04AM 36.8897 -103.1089 317° Northwest 465 535 45,000  Level Albuquerque Center
11:05AM 36.9822 -103.2131 318° Northwest 466 536 45,000  Level Albuquerque Center
11:06AM 37.0742 -103.3189 317° Northwest 468 539 45,000  Level Albuquerque Center
11:07AM 37.1808 -103.4436 317° Northwest 469 540 45,000  Level Albuquerque Center
11:08AM 37.2739 -103.5500 318° Northwest 471 542 45,000  Level Albuquerque Center
11:08AM 37.3667 -103.6561 318° Northwest 474 545 45,000  Level Denver Center
11:09AM 37.4597 -103.7647 317° Northwest 476 548 45,000  Level Denver Center
11:11AM 37.5678 -103.8892 318° Northwest 477 549 45,000  Level Denver Center
11:12AM 37.6592 -103.9961 317° Northwest 485 558 45,000  Level Denver Center
11:13AM 37.7642 -104.1225 316° Northwest 475 547 45,000  Level Denver Center
11:14AM 37.8572 -104.2322 317° Northwest 478 550 45,000  Level Denver Center
11:15AM 37.9650 -104.3603 317° Northwest 476 548 45,000  Level Denver Center
11:16AM 38.0583 -104.4722 317° Northwest 482 555 45,000  Level Denver Center
11:17AM 38.1683 -104.6025 317° Northwest 485 558 45,000  Level Denver Center
11:18AM 38.2633 -104.7164 317° Northwest 488 562 45,000  Level Denver Center
11:19AM 38.3744 -104.8508 317° Northwest 493 567 45,000  Level Denver Center
11:20AM 38.4692 -104.9650 317° Northwest 491 565 45,000  Level Denver Center
11:21AM 38.5803 -105.0994 317° Northwest 491 565 45,000  Level Denver Center
11:22AM 38.6744 -105.2156 316° Northwest 489 563 45,000  Level Denver Center
11:23AM 38.7683 -105.3308 316° Northwest 489 563 45,000  Level Denver Center
11:24AM 38.8789 -105.4633 317° Northwest 488 562 45,000  Level Denver Center
11:25AM 38.9708 -105.5772 316° Northwest 481 554 45,000  Level Denver Center
11:26AM 39.0786 -105.7128 316° Northwest 484 557 45,000  Level Denver Center
11:27AM 39.1697 -105.8278 316° Northwest 482 555 45,000  Level Denver Center
11:28AM 39.2658 -105.9478 316° Northwest 481 554 45,000  Level Denver Center
11:29AM 39.3611 -106.0681 316° Northwest 480 552 45,000  Level Denver Center
11:30AM 39.4778 -106.2150 316° Northwest 488 562 45,000  Level Denver Center
11:31AM 39.5744 -106.3367 316° Northwest 489 563 45,000  Level Denver Center
11:32AM 39.6700 -106.4575 316° Northwest 485 558 45,000  Level Denver Center
11:33AM 39.7650 -106.5789 316° Northwest 485 558 45,000  Level Denver Center
11:34AM 39.8600 -106.7017 315° West 486 559 45,000  Level Denver Center
11:35AM 39.9719 -106.8444 316° Northwest 483 556 45,000  Level Denver Center
11:36AM 40.0631 -106.9633 315° West 485 558 45,000  Level Denver Center
11:37AM 40.1706 -107.1019 315° West 487 560 45,000  Level Denver Center
11:38AM 40.2617 -107.2222 315° West 488 562 45,000  Level Denver Center
11:39AM 40.3692 -107.3636 315° West 491 565 45,000  Level Denver Center
11:41AM 40.4614 -107.4850 315° West 492 566 45,000  Level Denver Center
11:42AM 40.5697 -107.6289 315° West 496 571 45,000  Level Denver Center
11:43AM 40.6633 -107.7517 315° West 498 573 45,000  Level Denver Center
11:44AM 40.7631 -107.8844 315° West 497 572 45,000  Level Denver Center
11:45AM 40.8722 -108.0306 315° West 501 577 45,000  Level Denver Center
11:46AM 40.9650 -108.1581 314° West 503 579 45,000  Level Denver Center
11:46AM 41.0125 -108.2197 316° Northwest 502 578 45,000  Level Salt Lake Center
11:47AM 41.1228 -108.3250 324° Northwest 512 589 45,000  Level Salt Lake Center
11:48AM 41.2528 -108.4442 325° Northwest 511 588 45,000  Level Salt Lake Center
11:49AM 41.3633 -108.5478 325° Northwest 511 588 45,000  Level Salt Lake Center
11:50AM 41.4917 -108.6678 325° Northwest 510 587 45,000  Level Salt Lake Center
11:51AM 41.6028 -108.7728 325° Northwest 515 593 45,000  Level Salt Lake Center
11:52AM 41.7319 -108.8950 325° Northwest 515 593 45,000  Level Salt Lake Center
11:53AM 41.8436 -109.0008 325° Northwest 517 595 45,000  Level Salt Lake Center
11:54AM 41.9753 -109.1233 325° Northwest 520 598 45,000 -97 Level Salt Lake Center
11:55AM 42.0875 -109.2292 325° Northwest 517 595 44,800 -1,210 Descending Salt Lake Center
11:56AM 42.2186 -109.3581 324° Northwest 521 600 42,500 -2,565 Descending Salt Lake Center
11:57AM 42.3239 -109.4644 323° Northwest 502 578 39,500 -3,000 Descending Salt Lake Center
11:58AM 42.4428 -109.5783 325° Northwest 472 543 36,300 -2,903 Descending Salt Lake Center
12:00PM 42.5464 -109.6803 324° Northwest 479 551 33,500 -3,000 Descending Salt Lake Center
12:01PM 42.6714 -109.8031 324° Northwest 495 570 30,100 -3,097 Descending Salt Lake Center
12:02PM 42.7789 -109.9106 324° Northwest 495 570 27,100 -2,661 Descending Salt Lake Center
12:03PM 42.9028 -110.0311 325° Northwest 490 564 24,600 -2,129 Descending Salt Lake Center
12:04PM 43.0050 -110.1336 324° Northwest 478 550 22,700 -2,032 Descending Salt Lake Center
12:05PM 43.1217 -110.2497 324° Northwest 465 535 20,400 -2,032 Descending Salt Lake Center
12:06PM 43.2158 -110.3458 323° Northwest 453 521 18,500 -1,984 Descending Salt Lake Center
12:07PM 43.3111 -110.4372 325° Northwest 398 458 16,300 -2,032 Descending Salt Lake Center
12:08PM 43.3856 -110.5236 320° Northwest 354 407 14,300 -1,935 Descending Salt Lake Center
12:09PM 43.4289 -110.6331 299° West 324 373 12,300 -1,403 Descending Salt Lake Center
12:10PM 43.4664 -110.7314 298° West 287 330 11,400 -1,500 Descending Salt Lake Center
12:11PM 43.5100 -110.7792 322° Northwest 232 267 9,200 -1,984 Descending Salt Lake Center
12:12PM 43.5608 -110.7617 14° North 179 206 7,300 -1,366 Descending Salt Lake Center
12:13PM 43.5986 -110.7422 20° North 159 183 6,400 -885 Descending Salt Lake Center